Time;durP1;ratioP1;P1;durP2;ratioP2;P2;SDS_P1;SDS_P2;PMS_P1;PMS_P2;Temp;Humidity;BMP_temperature;BMP_pressure;BME280_temperature;BME280_humidity;BME280_pressure;Samples;Min_cycle;Max_cycle;Signal;HPM_P1;HPM_P2
2022/05/23 16:50:57;;;;;;;9.20;3.05;;;;;;;20.37;45.33;100053.32;5318399;54;46415;-73
2022/05/23 16:56:02;;;;;;;3.33;2.65;;;;;;;20.34;44.77;100048.30;5037001;58;1134836;-72
2022/05/23 17:01:09;;;;;;;6.17;3.25;;;;;;;20.35;45.14;100051.30;5193977;55;1139099;-69
2022/05/23 17:06:15;;;;;;;6.26;2.66;;;;;;;20.29;45.15;100039.50;5252944;55;1139016;-70
2022/05/23 17:11:22;;;;;;;2.77;2.47;;;;;;;20.22;44.97;100035.08;5164657;56;1139093;-70
2022/05/23 17:16:28;;;;;;;2.35;2.05;;;;;;;20.12;45.70;100035.92;5177168;56;1139238;-74
2022/05/23 17:21:34;;;;;;;2.45;2.15;;;;;;;20.07;45.68;100032.47;5144395;56;1139088;-73
2022/05/23 17:26:41;;;;;;;4.60;2.00;;;;;;;19.97;44.89;100019.38;5119935;57;1139322;-69
2022/05/23 17:31:47;;;;;;;1.90;1.80;;;;;;;19.93;45.41;100017.26;5101964;57;1139152;-72
2022/05/23 17:36:53;;;;;;;7.10;1.90;;;;;;;19.89;46.32;100012.77;5117990;57;1139054;-71
2022/05/23 17:42:00;;;;;;;3.95;1.70;;;;;;;19.89;46.35;100010.60;5096158;57;1139140;-70
2022/05/23 17:47:08;;;;;;;6.55;2.72;;;;;;;19.80;46.46;100007.73;5062533;57;1139156;-73
2022/05/23 17:52:13;;;;;;;3.90;2.00;;;;;;;19.70;46.99;100004.55;5061129;57;1139053;-71
2022/05/23 17:57:21;;;;;;;4.30;2.10;;;;;;;19.62;47.50;100004.97;5065510;57;1139070;-71
2022/05/23 18:02:27;;;;;;;2.83;2.30;;;;;;;19.56;47.95;99994.16;5101963;57;1139035;-71
2022/05/23 18:07:36;;;;;;;3.98;2.85;;;;;;;19.50;48.23;99993.08;5076779;57;1136935;-70
2022/05/23 18:12:42;;;;;;;5.55;2.02;;;;;;;19.44;48.51;99996.98;5063527;57;1136999;-72
2022/05/23 18:23:12;;;;;;;4.35;2.47;;;;;;;19.23;48.45;99990.58;5090884;57;1134829;-72
2022/05/23 18:28:18;;;;;;;5.03;2.50;;;;;;;19.10;48.29;99989.05;5067885;57;1134956;-70
2022/05/23 18:33:24;;;;;;;6.28;2.40;;;;;;;18.98;48.66;99987.35;5067906;57;1134935;-74
2022/05/23 18:38:30;;;;;;;12.35;3.30;;;;;;;18.89;48.87;99983.13;5098643;57;1134955;-70
2022/05/23 18:43:36;;;;;;;11.90;3.00;;;;;;;18.83;49.04;99989.72;5203561;56;1136917;-72
2022/05/23 18:54:06;;;;;;;6.55;2.80;;;;;;;18.60;49.25;99987.97;5035734;57;1135133;-73
2022/05/23 18:59:12;;;;;;;5.15;2.55;;;;;;;18.52;49.57;99983.98;4930978;59;1135144;-70
2022/05/23 19:04:18;;;;;;;4.92;2.70;;;;;;;18.46;49.83;99992.77;5039133;58;1135216;-74
2022/05/23 19:09:24;;;;;;;5.35;3.10;;;;;;;18.34;49.93;99989.36;5052238;58;1135033;-70
2022/05/23 19:14:32;;;;;;;5.45;2.85;;;;;;;18.24;50.04;99985.11;5052813;58;1134951;-72
2022/05/23 19:19:39;;;;;;;7.87;2.70;;;;;;;18.10;49.90;99976.53;5053001;58;1132793;-74
2022/05/23 19:24:45;;;;;;;4.45;2.42;;;;;;;17.97;50.38;99975.48;5053107;58;1133129;-71
2022/05/23 19:29:52;;;;;;;4.20;2.23;;;;;;;17.82;50.94;99984.30;5050759;57;1136944;-74
2022/05/23 19:34:57;;;;;;;2.40;2.20;;;;;;;17.71;51.18;99983.89;5017578;57;1136925;-74
2022/05/23 19:40:03;;;;;;;6.93;2.90;;;;;;;17.59;51.45;99990.92;5026663;58;1140841;-75
2022/05/23 19:45:13;;;;;;;4.77;3.00;;;;;;;17.50;51.68;99993.84;5018653;57;1137130;-75
2022/05/23 19:50:19;;;;;;;6.77;2.77;;;;;;;17.35;51.94;99987.58;5123431;56;1137002;-71
2022/05/23 19:55:25;;;;;;;4.80;2.43;;;;;;;17.21;52.07;99987.81;5117133;56;1137060;-71
2022/05/23 20:00:33;;;;;;;4.10;2.37;;;;;;;17.11;52.36;99985.34;5139856;57;1136973;-71
2022/05/23 20:11:09;;;;;;;5.30;3.53;;;;;;;16.99;52.89;99971.20;5101131;56;1136924;-72
2022/05/23 20:16:15;;;;;;;6.63;3.90;;;;;;;16.81;53.86;99968.27;5094140;57;1137007;-72
2022/05/23 20:21:21;;;;;;;8.73;3.23;;;;;;;16.65;54.33;99958.97;5079166;57;1137228;-71
2022/05/23 20:26:27;;;;;;;3.50;3.30;;;;;;;16.54;55.01;99951.30;5123608;56;1137031;-70
2022/05/23 20:31:34;;;;;;;4.97;3.00;;;;;;;16.43;55.64;99952.51;5133225;56;1137078;-70
2022/05/23 20:36:40;;;;;;;5.27;3.43;;;;;;;16.31;56.18;99958.38;5123398;57;1136936;-71
2022/05/23 20:41:45;;;;;;;4.63;3.90;;;;;;;16.19;57.21;99953.37;5142783;56;1137141;-71
2022/05/23 20:46:51;;;;;;;9.83;4.20;;;;;;;16.10;57.39;99946.88;5162152;56;1137220;-70
2022/05/23 20:51:59;;;;;;;7.80;4.03;;;;;;;16.01;58.03;99947.41;5198196;56;1136979;-70
2022/05/23 20:57:06;;;;;;;6.00;3.87;;;;;;;15.90;57.70;99946.39;5228045;56;1136950;-72
2022/05/23 21:02:17;;;;;;;10.00;4.33;;;;;;;15.81;58.30;99946.91;5227744;56;1136977;-71
2022/05/23 21:07:21;;;;;;;4.13;3.60;;;;;;;15.73;58.83;99935.41;5228112;56;1139245;-71
2022/05/23 21:12:27;;;;;;;4.23;3.63;;;;;;;15.63;58.94;99927.56;5227951;56;1136959;-71
2022/05/23 21:17:34;;;;;;;6.77;3.40;;;;;;;15.55;58.94;99930.23;5225816;56;1137017;-72
2022/05/23 21:22:40;;;;;;;8.73;4.00;;;;;;;15.47;59.54;99932.84;5227920;56;1137045;-70
2022/05/23 21:27:50;;;;;;;6.57;4.07;;;;;;;15.43;59.39;99923.50;5227925;56;1136905;-72
2022/05/23 21:32:59;;;;;;;12.30;3.70;;;;;;;15.32;59.61;99924.66;5186250;56;1136894;-70
2022/05/23 21:38:05;;;;;;;10.43;3.50;;;;;;;15.26;60.21;99929.83;5144916;56;1138279;-71
2022/05/23 21:48:36;;;;;;;5.30;3.70;;;;;;;15.12;60.29;99917.45;5184785;56;1134543;-70
2022/05/23 21:53:42;;;;;;;4.60;3.97;;;;;;;15.06;60.64;99915.45;5162693;56;1134926;-71
2022/05/23 21:58:48;;;;;;;3.97;3.57;;;;;;;15.00;60.83;99913.42;5225212;56;1135026;-72
2022/05/23 22:03:55;;;;;;;6.17;4.33;;;;;;;14.95;60.64;99918.92;5251786;56;1134870;-71
2022/05/23 22:09:00;;;;;;;10.87;4.67;;;;;;;14.92;60.91;99921.41;5251703;56;1134712;-70
2022/05/23 22:14:06;;;;;;;5.30;4.73;;;;;;;14.83;61.38;99922.84;5246317;56;1136948;-72
2022/05/23 22:19:13;;;;;;;17.00;5.50;;;;;;;14.79;61.47;99933.01;5251828;56;1135003;-71
2022/05/23 22:24:21;;;;;;;5.57;4.30;;;;;;;14.72;62.42;99937.29;5251564;56;1137001;-70
2022/05/23 22:29:27;;;;;;;5.17;4.67;;;;;;;14.65;62.26;99935.78;5203955;56;1134881;-70
2022/05/23 22:34:33;;;;;;;8.23;4.90;;;;;;;14.62;62.54;99939.25;5127610;57;1134896;-71
2022/05/23 22:39:39;;;;;;;10.00;5.30;;;;;;;14.59;62.71;99962.18;5072394;57;1135147;-72
2022/05/23 22:44:45;;;;;;;6.53;4.20;;;;;;;14.48;63.22;99951.81;5138359;56;1136928;-71
2022/05/23 22:49:51;;;;;;;8.50;4.20;;;;;;;14.47;63.29;99943.00;5150364;57;1134890;-72
2022/05/23 22:54:59;;;;;;;8.40;5.30;;;;;;;14.46;63.68;99943.98;5290540;55;1134907;-71
2022/05/23 23:00:07;;;;;;;10.33;5.67;;;;;;;14.36;63.85;99947.23;5225529;55;1134901;-72
2022/05/23 23:05:13;;;;;;;9.43;6.13;;;;;;;14.27;65.46;99949.48;5265538;55;1137020;-71
2022/05/23 23:10:21;;;;;;;8.33;5.07;;;;;;;14.18;65.44;99947.28;5221512;55;1134867;-72
2022/05/23 23:15:26;;;;;;;12.70;5.80;;;;;;;14.12;65.65;99937.25;5217949;56;1132830;-70
2022/05/23 23:20:33;;;;;;;7.83;5.37;;;;;;;14.05;67.15;99926.39;5217986;56;1134882;-71
2022/05/23 23:25:38;;;;;;;5.57;4.93;;;;;;;13.99;67.57;99924.87;5218060;56;1137135;-70
2022/05/23 23:30:45;;;;;;;6.90;5.20;;;;;;;13.96;68.19;99921.19;5218077;56;1136948;-71
2022/05/23 23:41:15;;;;;;;7.83;5.50;;;;;;;13.89;69.04;99902.37;5205633;56;1137164;-71
2022/05/23 23:46:21;;;;;;;6.53;4.80;;;;;;;13.87;69.34;99888.41;5228385;56;1136976;-71
2022/05/23 23:51:27;;;;;;;7.63;5.23;;;;;;;13.80;69.29;99882.02;5228287;56;1136961;-70
2022/05/23 23:56:33;;;;;;;10.50;5.13;;;;;;;13.74;70.43;99870.70;5228169;56;1136923;-71
